Time;durP1;ratioP1;P1;durP2;ratioP2;P2;SDS_P1;SDS_P2;PMS_P1;PMS_P2;Temp;Humidity;BMP_temperature;BMP_pressure;BME280_temperature;BME280_humidity;BME280_pressure;Samples;Min_cycle;Max_cycle;Signal;HPM_P1;HPM_P2
2022/06/03 00:01:45;;;;;;;3.17;2.90;;;9.00;99.90;;;;;;5028117;28;20547;-52
2022/06/03 00:04:34;;;;;;;5.40;2.93;;;8.90;99.90;;;;;;5030943;28;20538;-52
2022/06/03 00:07:18;;;;;;;2.80;2.60;;;8.90;99.90;;;;;;5029584;28;20555;-52
2022/06/03 00:10:04;;;;;;;2.57;2.47;;;8.90;99.90;;;;;;5031177;28;20470;-51
2022/06/03 00:12:54;;;;;;;2.87;2.67;;;8.90;99.90;;;;;;5030563;28;20515;-53
2022/06/03 00:15:42;;;;;;;3.03;2.73;;;8.80;99.90;;;;;;5027844;28;20482;-52
2022/06/03 00:18:31;;;;;;;2.73;2.63;;;8.80;99.90;;;;;;5014732;28;20565;-51
2022/06/03 00:21:02;;;;;;;2.37;2.27;;;8.70;99.90;;;;;;5029980;28;20558;-51
2022/06/03 00:23:55;;;;;;;3.10;2.90;;;8.70;99.90;;;;;;5029132;28;20538;-50
2022/06/03 00:26:45;;;;;;;2.70;2.50;;;8.60;99.90;;;;;;5029136;28;20525;-51
2022/06/03 00:29:38;;;;;;;3.90;3.50;;;8.50;99.90;;;;;;5024765;28;21184;-51
2022/06/03 00:32:24;;;;;;;5.00;3.13;;;8.50;99.90;;;;;;5027549;28;20483;-52
2022/06/03 00:35:27;;;;;;;3.27;3.13;;;8.50;99.90;;;;;;5027827;28;20561;-52
2022/06/03 00:38:00;;;;;;;5.70;3.30;;;8.50;99.90;;;;;;4996101;28;20475;-52
2022/06/03 00:41:04;;;;;;;3.13;2.83;;;8.50;99.90;;;;;;5028657;28;20573;-52
2022/06/03 00:43:47;;;;;;;3.17;2.97;;;8.50;99.90;;;;;;5022871;28;20547;-52
2022/06/03 00:46:25;;;;;;;3.00;2.83;;;8.50;99.90;;;;;;5028654;28;20979;-53
2022/06/03 00:49:15;;;;;;;4.53;2.87;;;8.40;99.90;;;;;;5027209;28;20477;-52
2022/06/03 00:52:22;;;;;;;2.90;2.80;;;8.30;99.90;;;;;;5027331;28;20533;-51
2022/06/03 00:55:18;;;;;;;3.30;3.00;;;8.30;99.90;;;;;;5032280;28;20581;-52
2022/06/03 00:58:20;;;;;;;3.57;3.30;;;8.30;99.90;;;;;;5033311;28;20573;-51
2022/06/03 01:01:04;;;;;;;3.47;3.27;;;8.30;99.90;;;;;;5032647;28;20557;-52
2022/06/03 01:03:41;;;;;;;3.27;2.97;;;8.30;99.90;;;;;;5027969;28;20980;-52
2022/06/03 01:06:23;;;;;;;3.80;3.50;;;8.20;99.90;;;;;;5033305;28;21023;-52
2022/06/03 01:09:06;;;;;;;4.40;3.90;;;8.20;99.90;;;;;;5029953;28;20458;-52
2022/06/03 01:12:02;;;;;;;13.60;4.20;;;8.30;99.90;;;;;;5028824;28;20619;-52
2022/06/03 01:14:39;;;;;;;9.67;4.13;;;8.40;99.90;;;;;;5031835;28;20455;-51
2022/06/03 01:17:12;;;;;;;4.77;4.43;;;8.20;99.90;;;;;;5029566;28;20565;-51
2022/06/03 01:20:16;;;;;;;4.87;4.03;;;8.20;99.90;;;;;;5031302;28;20486;-51
2022/06/03 01:23:15;;;;;;;3.10;3.00;;;8.10;99.90;;;;;;5026217;28;20557;-50
2022/06/03 01:26:12;;;;;;;3.70;3.40;;;8.20;99.90;;;;;;5026969;28;21047;-51
2022/06/03 01:29:01;;;;;;;3.63;3.40;;;8.10;99.90;;;;;;5033767;28;20529;-52
2022/06/03 01:31:56;;;;;;;4.10;3.77;;;8.10;99.90;;;;;;5031705;28;20593;-51
2022/06/03 01:34:40;;;;;;;6.50;3.97;;;8.10;99.90;;;;;;5031426;28;21004;-52
2022/06/03 01:37:16;;;;;;;4.00;3.70;;;8.10;99.90;;;;;;5031119;28;20569;-51
2022/06/03 01:39:55;;;;;;;15.80;4.40;;;8.10;99.90;;;;;;5032162;28;20485;-52
2022/06/03 01:43:01;;;;;;;5.60;4.70;;;8.10;99.90;;;;;;5029204;28;20600;-52
2022/06/03 01:45:55;;;;;;;4.57;4.00;;;8.00;99.90;;;;;;5031946;28;21012;-51
2022/06/03 01:49:02;;;;;;;6.93;4.30;;;8.00;99.90;;;;;;5029140;28;20478;-52
2022/06/03 01:52:05;;;;;;;6.13;3.90;;;8.00;99.90;;;;;;5030996;28;21126;-52
2022/06/03 01:54:46;;;;;;;6.70;4.30;;;8.00;99.90;;;;;;5024188;28;20972;-51
2022/06/03 01:57:25;;;;;;;4.33;3.83;;;7.90;99.90;;;;;;5027754;28;20509;-51
2022/06/03 02:00:19;;;;;;;5.53;4.10;;;7.90;99.90;;;;;;5028660;28;20582;-51
2022/06/03 02:03:17;;;;;;;4.13;3.83;;;7.80;99.90;;;;;;5029651;28;20462;-52
2022/06/03 02:06:16;;;;;;;5.60;3.90;;;7.70;99.90;;;;;;5027306;28;20537;-51
2022/06/03 02:09:09;;;;;;;6.00;4.23;;;7.70;99.90;;;;;;5030052;28;20498;-52
2022/06/03 02:11:54;;;;;;;4.27;3.97;;;7.60;99.90;;;;;;5026007;28;20982;-52
2022/06/03 02:14:55;;;;;;;5.50;4.07;;;7.60;95.90;;;;;;5028247;28;20493;-51
2022/06/03 02:17:47;;;;;;;4.83;4.33;;;7.50;99.90;;;;;;4957554;28;20491;-52
2022/06/03 02:20:50;;;;;;;7.03;4.33;;;7.50;99.90;;;;;;5027805;28;20518;-52
2022/06/03 02:23:39;;;;;;;5.07;4.60;;;7.40;99.90;;;;;;5015069;28;20875;-52
2022/06/03 02:26:29;;;;;;;9.63;4.30;;;7.30;99.90;;;;;;5030966;28;20453;-50
2022/06/03 02:32:35;;;;;;;4.70;4.27;;;7.30;99.90;;;;;;5026121;28;20466;-51
2022/06/03 02:35:30;;;;;;;6.40;4.37;;;7.30;96.60;;;;;;5028866;28;20458;-50
2022/06/03 02:38:22;;;;;;;4.13;3.90;;;7.40;99.90;;;;;;5032311;28;20517;-52
2022/06/03 02:41:08;;;;;;;4.93;4.43;;;7.30;99.90;;;;;;5024869;28;20514;-51
2022/06/03 02:44:09;;;;;;;4.90;4.50;;;7.20;99.70;;;;;;5029107;28;20566;-52
2022/06/03 02:46:52;;;;;;;6.37;4.00;;;7.10;82.80;;;;;;5023488;28;20532;-51
2022/06/03 02:49:45;;;;;;;5.30;4.20;;;7.30;86.80;;;;;;5031793;28;20511;-52
2022/06/03 02:52:42;;;;;;;5.07;4.50;;;7.30;99.70;;;;;;5001384;28;20533;-52
2022/06/03 02:55:46;;;;;;;5.17;4.20;;;7.30;99.90;;;;;;5026654;28;20510;-53
2022/06/03 02:58:39;;;;;;;4.90;4.30;;;7.20;99.90;;;;;;4985849;28;20544;-51
2022/06/03 03:01:25;;;;;;;5.60;4.10;;;7.10;94.70;;;;;;5025875;28;20599;-51
2022/06/03 03:04:00;;;;;;;5.07;4.60;;;7.10;79.80;;;;;;5028407;28;20563;-51
2022/06/03 03:07:01;;;;;;;4.80;4.40;;;7.20;87.80;;;;;;5030459;28;20510;-52
2022/06/03 03:09:36;;;;;;;5.00;4.00;;;7.30;94.20;;;;;;5031182;28;20486;-51
2022/06/03 03:12:41;;;;;;;5.70;4.57;;;7.30;96.60;;;;;;5032082;28;21016;-52
2022/06/03 03:15:53;;;;;;;8.70;4.40;;;7.20;97.10;;;;;;5024781;28;20533;-51
2022/06/03 03:18:41;;;;;;;4.80;4.20;;;7.20;99.90;;;;;;5029074;28;20486;-52
2022/06/03 03:21:34;;;;;;;5.20;4.53;;;7.20;98.50;;;;;;5029485;28;21581;-51
2022/06/03 03:24:31;;;;;;;4.90;4.50;;;7.10;99.90;;;;;;5024721;28;20498;-51
2022/06/03 03:27:16;;;;;;;4.83;4.30;;;7.00;98.50;;;;;;5010204;28;20580;-53
2022/06/03 03:29:58;;;;;;;4.47;4.17;;;7.00;99.90;;;;;;5028261;28;20461;-52
2022/06/03 03:32:42;;;;;;;4.60;4.20;;;7.00;99.40;;;;;;5027293;28;20536;-51
2022/06/03 03:35:22;;;;;;;4.90;4.50;;;7.00;98.60;;;;;;5026044;28;20483;-51
2022/06/03 03:38:31;;;;;;;4.10;3.80;;;7.00;94.90;;;;;;5032681;28;20536;-52
2022/06/03 03:41:30;;;;;;;3.60;3.40;;;7.10;99.90;;;;;;5031062;28;20489;-51
2022/06/03 03:44:49;;;;;;;4.67;4.33;;;7.20;99.90;;;;;;5031235;28;20525;-52
2022/06/03 03:47:49;;;;;;;4.53;4.20;;;7.20;99.90;;;;;;5029405;28;20514;-52
2022/06/03 03:50:51;;;;;;;4.50;4.10;;;7.20;99.90;;;;;;4995566;28;20451;-52
2022/06/03 03:53:39;;;;;;;4.80;4.30;;;7.20;99.90;;;;;;5022478;28;20513;-51
2022/06/03 03:56:45;;;;;;;4.50;4.10;;;7.40;99.90;;;;;;5027922;28;20482;-52
2022/06/03 03:59:39;;;;;;;5.20;4.80;;;7.40;99.90;;;;;;5026937;28;20490;-51
2022/06/03 04:02:45;;;;;;;4.33;4.03;;;7.50;99.90;;;;;;5029338;28;20490;-51
2022/06/03 04:05:52;;;;;;;5.37;4.87;;;7.50;99.90;;;;;;5027418;28;20973;-51
2022/06/03 04:08:36;;;;;;;4.50;3.60;;;7.60;99.90;;;;;;4961181;28;20910;-52
2022/06/03 04:11:26;;;;;;;4.13;3.70;;;7.60;99.90;;;;;;5013113;28;20520;-51
2022/06/03 04:14:11;;;;;;;4.40;4.10;;;7.70;99.90;;;;;;5029969;28;20469;-52
2022/06/03 04:17:00;;;;;;;4.70;4.17;;;7.70;99.90;;;;;;5024543;28;20482;-52
2022/06/03 04:19:56;;;;;;;4.60;4.30;;;7.80;99.90;;;;;;5028147;28;21013;-52
2022/06/03 04:23:20;;;;;;;13.77;5.90;;;7.90;99.90;;;;;;5031511;28;20520;-51
2022/06/03 04:26:30;;;;;;;4.13;3.73;;;8.00;99.90;;;;;;4993761;28;20988;-51
2022/06/03 04:29:34;;;;;;;4.67;4.37;;;8.20;99.90;;;;;;5031661;28;20469;-51
2022/06/03 04:32:33;;;;;;;8.10;4.63;;;8.30;99.90;;;;;;5033371;28;20446;-51
2022/06/03 04:35:48;;;;;;;5.80;4.80;;;8.40;99.90;;;;;;5028907;28;20546;-51
2022/06/03 04:38:48;;;;;;;7.80;5.30;;;8.50;99.90;;;;;;5029008;28;20588;-51
2022/06/03 04:41:47;;;;;;;7.73;5.50;;;8.60;99.90;;;;;;5027717;28;20482;-51
2022/06/03 04:44:59;;;;;;;40.27;29.77;;;8.70;99.90;;;;;;5003748;28;20519;-51
2022/06/03 04:47:58;;;;;;;92.83;53.07;;;8.80;99.90;;;;;;5028731;28;20517;-51
2022/06/03 04:50:57;;;;;;;38.97;23.50;;;9.00;99.90;;;;;;5037819;28;20978;-51
2022/06/03 04:54:01;;;;;;;10.10;8.17;;;9.00;99.90;;;;;;5022467;28;20497;-51
2022/06/03 04:57:00;;;;;;;10.47;8.47;;;9.20;99.90;;;;;;5027519;28;20513;-50
2022/06/03 05:00:05;;;;;;;8.70;7.20;;;9.30;99.90;;;;;;4995633;28;20459;-52
2022/06/03 05:03:28;;;;;;;5.30;4.90;;;9.50;99.90;;;;;;5030457;28;20462;-51
2022/06/03 05:06:28;;;;;;;7.10;5.20;;;9.60;99.90;;;;;;5026402;28;21982;-51
2022/06/03 05:09:37;;;;;;;5.10;4.57;;;9.80;99.90;;;;;;5027420;28;20491;-51
2022/06/03 05:12:31;;;;;;;7.47;5.10;;;10.00;99.90;;;;;;5037733;28;20474;-51
2022/06/03 05:15:57;;;;;;;4.87;4.47;;;10.20;99.90;;;;;;5025503;28;20467;-52
2022/06/03 05:19:02;;;;;;;4.37;4.07;;;10.40;99.90;;;;;;5025943;28;20494;-50
2022/06/03 05:21:56;;;;;;;7.00;4.27;;;10.60;99.90;;;;;;4945186;28;20990;-52
2022/06/03 05:24:58;;;;;;;9.90;5.30;;;10.90;99.90;;;;;;4948591;28;20501;-52
2022/06/03 05:27:56;;;;;;;14.43;5.27;;;11.10;99.90;;;;;;5021582;28;20510;-52
2022/06/03 05:30:41;;;;;;;40.17;6.30;;;11.30;99.90;;;;;;5037314;28;20449;-52
2022/06/03 05:33:40;;;;;;;49.27;7.10;;;11.40;99.90;;;;;;5029281;28;20984;-52
2022/06/03 05:36:33;;;;;;;43.77;6.20;;;11.60;99.90;;;;;;5030058;28;20498;-50
2022/06/03 05:39:35;;;;;;;43.70;5.70;;;11.80;99.90;;;;;;5027049;28;20478;-52
2022/06/03 05:42:30;;;;;;;33.67;5.07;;;11.90;99.90;;;;;;5030041;28;20484;-52
2022/06/03 05:45:19;;;;;;;35.37;5.20;;;12.00;99.90;;;;;;5034534;28;20513;-52
2022/06/03 05:47:52;;;;;;;20.93;5.20;;;12.30;99.90;;;;;;5003081;28;20486;-53
2022/06/03 05:50:29;;;;;;;10.83;3.57;;;12.40;99.90;;;;;;5034793;28;20474;-52
2022/06/03 05:53:10;;;;;;;14.03;3.80;;;12.60;99.90;;;;;;5034006;28;20442;-53
2022/06/03 05:55:49;;;;;;;51.90;4.63;;;12.80;99.90;;;;;;5034856;28;20466;-52
2022/06/03 05:58:41;;;;;;;26.90;4.50;;;13.10;99.90;;;;;;5034794;28;20481;-52
2022/06/03 06:01:23;;;;;;;76.93;6.00;;;13.30;99.90;;;;;;5033753;28;20968;-52
2022/06/03 06:03:57;;;;;;;54.47;6.00;;;13.40;99.90;;;;;;5034683;28;20493;-53
2022/06/03 06:06:32;;;;;;;54.43;6.00;;;13.50;99.90;;;;;;5034645;28;20486;-52
2022/06/03 06:09:17;;;;;;;48.27;4.77;;;13.60;99.90;;;;;;5034368;28;20979;-52
2022/06/03 06:11:59;;;;;;;25.37;4.03;;;13.70;99.90;;;;;;5033990;28;20443;-52
2022/06/03 06:14:34;;;;;;;21.70;3.80;;;13.80;99.90;;;;;;5034362;28;20529;-52
2022/06/03 06:17:11;;;;;;;16.13;3.33;;;13.90;99.90;;;;;;5033662;28;20505;-53
2022/06/03 06:19:43;;;;;;;7.10;3.30;;;14.00;99.90;;;;;;5033437;28;20454;-53
2022/06/03 06:22:21;;;;;;;18.63;3.73;;;14.20;30.60;;;;;;5033687;28;20497;-53
2022/06/03 06:25:03;;;;;;;8.10;2.90;;;14.30;35.70;;;;;;5034365;28;20493;-53
2022/06/03 06:27:57;;;;;;;8.47;2.30;;;14.50;38.30;;;;;;5034181;28;20469;-53
2022/06/03 06:30:48;;;;;;;3.80;2.50;;;14.60;46.10;;;;;;5034224;28;20478;-52
2022/06/03 06:33:35;;;;;;;4.43;3.00;;;14.70;52.10;;;;;;5033992;28;20478;-52
2022/06/03 06:36:43;;;;;;;5.93;2.20;;;14.80;53.90;;;;;;5033735;28;20447;-53
2022/06/03 06:39:20;;;;;;;5.03;2.60;;;14.90;60.50;;;;;;5007602;28;21037;-52
2022/06/03 06:41:52;;;;;;;7.50;3.13;;;15.00;63.20;;;;;;5033320;28;21050;-52
2022/06/03 06:44:34;;;;;;;5.70;3.07;;;15.20;69.30;;;;;;5033885;28;20489;-54
2022/06/03 06:47:10;;;;;;;6.10;3.43;;;15.30;83.60;;;;;;5033133;28;20580;-53
2022/06/03 06:49:41;;;;;;;5.97;3.30;;;15.50;85.10;;;;;;5033229;28;20506;-53
2022/06/03 06:52:30;;;;;;;5.30;3.87;;;15.70;95.50;;;;;;5032486;28;20447;-52
2022/06/03 06:55:05;;;;;;;14.17;3.10;;;15.70;94.30;;;;;;5033618;28;20454;-52
2022/06/03 06:57:34;;;;;;;7.00;2.97;;;15.80;97.40;;;;;;5033752;28;20870;-53
2022/06/03 07:00:08;;;;;;;5.73;3.37;;;15.80;94.70;;;;;;5033563;28;20538;-52
2022/06/03 07:02:41;;;;;;;7.57;3.27;;;15.90;98.10;;;;;;5033355;28;20486;-52
2022/06/03 07:05:13;;;;;;;7.57;2.67;;;16.00;99.10;;;;;;5030384;28;20501;-52
2022/06/03 07:07:44;;;;;;;11.17;2.77;;;16.10;99.90;;;;;;5033084;28;20495;-52
2022/06/03 07:10:19;;;;;;;3.77;2.50;;;16.20;99.90;;;;;;5033487;28;20501;-51
2022/06/03 07:12:50;;;;;;;5.50;2.40;;;16.20;99.90;;;;;;5032588;28;20955;-52
2022/06/03 07:15:23;;;;;;;18.63;2.13;;;16.30;99.90;;;;;;5033319;28;20455;-51
2022/06/03 07:20:54;;;;;;;7.40;2.30;;;16.40;99.90;;;;;;5032701;28;20482;-52
2022/06/03 07:23:29;;;;;;;2.07;1.77;;;16.50;99.90;;;;;;5033141;28;20482;-51
2022/06/03 07:26:00;;;;;;;5.03;2.30;;;16.50;99.90;;;;;;5033131;28;20532;-51
2022/06/03 07:28:33;;;;;;;2.30;2.10;;;16.70;99.90;;;;;;5032840;28;21000;-51
2022/06/03 07:31:09;;;;;;;2.93;2.63;;;16.80;99.90;;;;;;5032520;28;20509;-51
2022/06/03 07:33:48;;;;;;;3.33;1.93;;;16.90;99.90;;;;;;5032892;28;20516;-51
2022/06/03 07:36:22;;;;;;;2.57;2.33;;;16.90;99.90;;;;;;5033001;28;20474;-52
2022/06/03 07:38:55;;;;;;;8.63;2.30;;;17.00;99.90;;;;;;5032691;28;20504;-53
2022/06/03 07:44:20;;;;;;;4.60;2.37;;;17.20;99.90;;;;;;5043114;28;20467;-51
2022/06/03 07:46:52;;;;;;;1.90;1.80;;;17.40;99.90;;;;;;5031994;28;20471;-52
2022/06/03 07:49:21;;;;;;;4.50;2.03;;;17.40;99.90;;;;;;5031934;28;20455;-51
2022/06/03 07:51:51;;;;;;;4.90;1.93;;;17.40;99.90;;;;;;5031942;28;20834;-50
2022/06/03 07:54:26;;;;;;;9.17;1.90;;;17.50;99.90;;;;;;5032614;28;20482;-52
2022/06/03 07:57:00;;;;;;;4.17;1.83;;;17.60;99.90;;;;;;5032560;28;21192;-51
2022/06/03 07:59:32;;;;;;;1.83;1.70;;;17.70;99.90;;;;;;5032442;28;20441;-51
2022/06/03 08:02:04;;;;;;;5.73;2.43;;;17.80;99.90;;;;;;5031748;28;20514;-51
2022/06/03 08:04:33;;;;;;;2.90;2.70;;;17.80;99.90;;;;;;5032627;28;20485;-51
2022/06/03 08:12:34;;;;;;;3.63;1.90;;;18.10;99.90;;;;;;5031571;28;20423;-52
2022/06/03 08:15:14;;;;;;;3.00;2.23;;;18.10;99.90;;;;;;5032287;28;20470;-52
2022/06/03 08:17:42;;;;;;;3.77;2.27;;;18.20;99.90;;;;;;5030444;28;20474;-52
2022/06/03 08:20:09;;;;;;;4.47;2.10;;;18.40;99.90;;;;;;5031924;28;21026;-53
2022/06/03 08:22:36;;;;;;;2.27;2.17;;;18.50;99.90;;;;;;5031053;28;20482;-51
2022/06/03 08:25:03;;;;;;;1.73;1.60;;;18.50;99.90;;;;;;5032179;28;20451;-51
2022/06/03 08:27:34;;;;;;;2.30;2.10;;;18.50;99.90;;;;;;5032177;28;20502;-50
2022/06/03 08:30:03;;;;;;;3.33;2.00;;;18.50;99.90;;;;;;5032138;28;20489;-50
2022/06/03 08:32:33;;;;;;;3.30;2.10;;;18.70;99.90;;;;;;5031285;28;20501;-52
2022/06/03 08:35:07;;;;;;;5.60;2.03;;;18.80;99.90;;;;;;5031457;28;20508;-51
2022/06/03 08:37:37;;;;;;;5.90;2.27;;;18.90;99.90;;;;;;5032035;28;20960;-50
2022/06/03 08:40:18;;;;;;;2.60;2.50;;;19.00;99.90;;;;;;5031848;28;20506;-51
2022/06/03 08:42:51;;;;;;;5.27;2.50;;;19.00;99.90;;;;;;5031135;28;20850;-50
2022/06/03 08:45:28;;;;;;;2.90;2.50;;;19.00;99.90;;;;;;5031867;28;20561;-52
2022/06/03 08:48:16;;;;;;;5.43;2.30;;;19.00;99.90;;;;;;5034066;28;20448;-52
2022/06/03 08:50:54;;;;;;;2.90;2.00;;;19.10;99.90;;;;;;5050333;28;20431;-53
2022/06/03 08:53:27;;;;;;;4.20;2.13;;;19.10;99.90;;;;;;5031081;28;20564;-52
2022/06/03 08:55:59;;;;;;;2.63;2.00;;;19.10;99.90;;;;;;5031686;28;20455;-53
2022/06/03 08:58:31;;;;;;;3.03;2.00;;;19.20;99.90;;;;;;5031819;28;20529;-53
2022/06/03 09:01:04;;;;;;;3.20;2.60;;;19.30;99.90;;;;;;5030995;28;20518;-52
2022/06/03 09:03:39;;;;;;;3.67;2.10;;;19.40;99.90;;;;;;5031648;28;20503;-52
2022/06/03 09:06:11;;;;;;;3.23;2.30;;;19.50;99.90;;;;;;5031456;28;20485;-51
2022/06/03 09:08:42;;;;;;;7.60;2.07;;;19.60;99.90;;;;;;5026014;28;20913;-52
2022/06/03 09:11:16;;;;;;;4.73;2.07;;;19.70;99.90;;;;;;5030783;28;20754;-52
2022/06/03 09:13:51;;;;;;;2.47;2.37;;;19.70;99.90;;;;;;5031463;28;20478;-52
2022/06/03 09:16:20;;;;;;;5.63;2.27;;;19.90;99.90;;;;;;5032598;28;20975;-51
2022/06/03 09:18:52;;;;;;;2.57;2.10;;;19.90;99.90;;;;;;5025228;28;20456;-52
2022/06/03 09:21:25;;;;;;;3.50;2.03;;;20.00;99.90;;;;;;5014672;28;20526;-52
2022/06/03 09:24:03;;;;;;;6.70;2.10;;;20.00;99.90;;;;;;5015773;28;20478;-52
2022/06/03 09:26:33;;;;;;;3.17;2.00;;;20.10;99.90;;;;;;5015422;28;20540;-52
2022/06/03 09:29:02;;;;;;;5.33;1.90;;;20.20;99.90;;;;;;5015488;28;20907;-54
2022/06/03 09:31:31;;;;;;;3.63;2.00;;;20.20;99.90;;;;;;5014697;28;20451;-53
2022/06/03 09:33:58;;;;;;;1.90;1.67;;;20.20;99.90;;;;;;5015467;28;20458;-53
2022/06/03 09:36:27;;;;;;;2.80;1.77;;;20.30;99.90;;;;;;5015349;28;20471;-53
2022/06/03 09:38:58;;;;;;;3.43;2.40;;;20.40;99.90;;;;;;5015300;28;20981;-52
2022/06/03 09:41:27;;;;;;;3.80;2.00;;;20.60;99.90;;;;;;5033923;28;20522;-53
2022/06/03 09:43:56;;;;;;;1.93;1.83;;;20.70;99.90;;;;;;5034777;28;20478;-52
2022/06/03 09:46:24;;;;;;;4.47;1.80;;;20.70;99.90;;;;;;5034158;28;20541;-53
2022/06/03 09:48:51;;;;;;;1.97;1.87;;;20.60;99.90;;;;;;5034134;28;20504;-52
2022/06/03 09:51:20;;;;;;;2.30;2.10;;;20.50;99.90;;;;;;5034259;28;20443;-53
2022/06/03 09:53:49;;;;;;;1.40;1.40;;;20.60;99.90;;;;;;5034762;28;20513;-52
2022/06/03 09:56:22;;;;;;;3.93;2.03;;;20.70;99.90;;;;;;5034620;28;20861;-51
2022/06/03 09:58:54;;;;;;;2.27;1.80;;;20.80;99.90;;;;;;5034788;28;20469;-53
2022/06/03 10:01:21;;;;;;;8.93;1.90;;;21.00;99.90;;;;;;5034043;28;20478;-53
2022/06/03 10:03:47;;;;;;;4.63;1.60;;;21.10;99.90;;;;;;5034485;28;20500;-53
2022/06/03 10:14:24;;;;;;;9.67;2.23;;;21.30;99.90;;;;;;5014599;28;20415;-53
2022/06/03 10:16:50;;;;;;;1.80;1.70;;;21.00;99.90;;;;;;5019231;28;20494;-53
2022/06/03 10:19:17;;;;;;;3.30;1.47;;;21.10;99.90;;;;;;5033477;28;20968;-53
2022/06/03 10:21:51;;;;;;;5.90;1.67;;;21.20;99.90;;;;;;5033934;28;20514;-52
2022/06/03 10:24:22;;;;;;;1.50;1.40;;;21.40;99.90;;;;;;5034606;28;20936;-53
2022/06/03 10:26:51;;;;;;;8.57;2.00;;;21.60;99.90;;;;;;5034420;28;20498;-53
2022/06/03 10:29:19;;;;;;;6.60;1.47;;;21.70;99.90;;;;;;5033957;28;20458;-52
2022/06/03 10:31:52;;;;;;;2.90;1.53;;;21.70;99.90;;;;;;5033356;28;20524;-53
2022/06/03 10:34:24;;;;;;;2.60;2.07;;;21.80;99.90;;;;;;5034426;28;20838;-53
2022/06/03 10:36:53;;;;;;;2.80;2.00;;;21.80;99.90;;;;;;5034077;28;20549;-52
2022/06/03 10:39:27;;;;;;;1.67;1.57;;;21.90;99.90;;;;;;5036484;28;20508;-52
2022/06/03 10:41:56;;;;;;;2.40;1.67;;;21.90;99.90;;;;;;5053200;28;20480;-52
2022/06/03 10:44:25;;;;;;;2.10;1.90;;;21.90;99.90;;;;;;5053622;28;20446;-50
2022/06/03 10:46:54;;;;;;;2.20;1.73;;;22.00;99.90;;;;;;5047960;28;20478;-51
2022/06/03 10:49:22;;;;;;;1.93;1.40;;;21.90;99.90;;;;;;5033022;28;20465;-51
2022/06/03 11:02:53;;;;;;;3.70;1.87;;;22.30;99.90;;;;;;5032932;28;20477;-51
2022/06/03 11:05:24;;;;;;;1.97;1.53;;;22.30;99.90;;;;;;5033371;28;20487;-51
2022/06/03 11:07:58;;;;;;;5.90;1.70;;;22.30;99.90;;;;;;5033793;28;20498;-51
2022/06/03 11:10:30;;;;;;;2.63;1.80;;;22.40;99.90;;;;;;5033260;28;20447;-51
2022/06/03 11:12:59;;;;;;;2.93;1.57;;;22.30;99.90;;;;;;5032465;28;20467;-53
2022/06/03 11:15:32;;;;;;;2.77;1.60;;;22.30;99.90;;;;;;5032979;28;20459;-54
2022/06/03 11:18:00;;;;;;;2.70;1.90;;;22.40;99.90;;;;;;5031851;28;20566;-53
2022/06/03 11:20:35;;;;;;;1.53;1.43;;;22.50;99.90;;;;;;5033327;28;20446;-52
2022/06/03 11:23:03;;;;;;;2.03;1.50;;;22.70;99.90;;;;;;5032409;28;20949;-53
2022/06/03 11:25:32;;;;;;;10.30;1.67;;;22.70;99.90;;;;;;5033118;28;20517;-52
2022/06/03 11:28:02;;;;;;;1.57;1.33;;;22.80;99.90;;;;;;5032943;28;20550;-54
2022/06/03 11:30:34;;;;;;;3.70;1.63;;;22.70;99.90;;;;;;5033165;28;20805;-53
2022/06/03 11:33:05;;;;;;;2.70;1.37;;;22.80;99.90;;;;;;5032281;28;20474;-53
2022/06/03 11:35:38;;;;;;;3.33;1.40;;;22.70;99.90;;;;;;5032946;28;20497;-52
2022/06/03 11:38:07;;;;;;;4.27;1.63;;;22.70;99.90;;;;;;5032727;28;21000;-53
2022/06/03 11:40:39;;;;;;;2.57;1.67;;;22.80;99.90;;;;;;5019468;28;20479;-52
2022/06/03 11:43:10;;;;;;;3.60;1.60;;;22.90;99.90;;;;;;5012478;28;20549;-53
2022/06/03 11:45:43;;;;;;;1.63;1.43;;;23.00;99.90;;;;;;5013149;28;20482;-54
2022/06/03 11:48:17;;;;;;;5.13;1.83;;;23.10;99.90;;;;;;5026584;28;20502;-53
2022/06/03 11:50:44;;;;;;;2.10;1.70;;;23.20;99.90;;;;;;5032519;28;20451;-53
2022/06/03 11:53:10;;;;;;;1.87;1.50;;;23.20;99.90;;;;;;5031723;28;20479;-52
2022/06/03 11:55:39;;;;;;;2.60;1.70;;;23.20;99.90;;;;;;5032745;28;20479;-52
2022/06/03 11:58:12;;;;;;;8.33;2.10;;;23.20;99.90;;;;;;5032822;28;20479;-52
2022/06/03 12:00:41;;;;;;;14.77;1.77;;;23.00;99.90;;;;;;5032618;28;20475;-52
2022/06/03 12:03:35;;;;;;;1.87;1.70;;;23.00;99.90;;;;;;5031904;28;20510;-52
2022/06/03 12:06:05;;;;;;;3.33;1.40;;;23.10;99.90;;;;;;5032521;28;20451;-52
2022/06/03 12:08:43;;;;;;;1.87;1.60;;;23.10;99.90;;;;;;5033345;28;20451;-53
2022/06/03 12:14:13;;;;;;;3.43;1.97;;;23.30;99.90;;;;;;5030906;28;20461;-53
2022/06/03 12:16:54;;;;;;;3.23;1.50;;;23.40;99.90;;;;;;5014539;28;20473;-53
2022/06/03 12:19:39;;;;;;;1.60;1.50;;;23.40;99.90;;;;;;5018292;28;20546;-53
2022/06/03 12:22:33;;;;;;;1.80;1.40;;;23.40;99.90;;;;;;5011538;28;21017;-53
2022/06/03 12:25:00;;;;;;;4.30;1.80;;;23.40;99.90;;;;;;5012253;28;20448;-53
2022/06/03 12:27:31;;;;;;;2.70;1.97;;;23.40;99.90;;;;;;5012263;28;20848;-53
2022/06/03 12:30:25;;;;;;;1.90;1.80;;;23.50;99.90;;;;;;5012329;28;20451;-53
2022/06/03 12:32:56;;;;;;;1.63;1.63;;;23.60;99.90;;;;;;5011520;28;20831;-52
2022/06/03 12:35:47;;;;;;;1.70;1.60;;;23.70;99.90;;;;;;5012167;28;20515;-52
2022/06/03 12:38:43;;;;;;;2.93;1.80;;;23.80;99.90;;;;;;5012068;28;20837;-52
2022/06/03 12:41:10;;;;;;;3.33;1.80;;;23.90;99.90;;;;;;5018340;28;20477;-51
2022/06/03 12:44:00;;;;;;;1.50;1.40;;;24.00;99.90;;;;;;5030855;28;20529;-54
2022/06/03 12:46:38;;;;;;;3.53;1.47;;;23.90;99.90;;;;;;5031647;28;20499;-53
2022/06/03 12:49:15;;;;;;;1.60;1.50;;;23.90;99.90;;;;;;5023248;28;20474;-53
2022/06/03 12:51:59;;;;;;;1.57;1.47;;;24.10;99.90;;;;;;5025196;28;20999;-52
2022/06/03 12:54:26;;;;;;;7.83;1.80;;;24.10;99.90;;;;;;5034443;28;20905;-52
2022/06/03 12:56:58;;;;;;;2.00;1.90;;;24.00;99.90;;;;;;5040480;28;20569;-52
2022/06/03 12:59:30;;;;;;;13.83;1.60;;;23.90;99.90;;;;;;5032680;28;20497;-53
2022/06/03 13:02:01;;;;;;;1.83;1.73;;;23.70;99.90;;;;;;5031081;28;20435;-50
2022/06/03 13:04:55;;;;;;;1.53;1.43;;;23.70;99.90;;;;;;5031846;28;20485;-52
2022/06/03 13:07:37;;;;;;;10.03;1.80;;;23.70;99.90;;;;;;5031442;28;20532;-51
2022/06/03 13:10:24;;;;;;;3.60;1.60;;;23.90;99.90;;;;;;5029019;28;20446;-50
2022/06/03 13:12:52;;;;;;;4.60;1.60;;;24.00;99.90;;;;;;5025086;28;20469;-50
2022/06/03 13:15:47;;;;;;;2.50;2.00;;;24.20;99.90;;;;;;5037808;28;20477;-52
2022/06/03 13:18:18;;;;;;;2.13;1.80;;;24.30;99.90;;;;;;5032772;28;20540;-50
2022/06/03 13:20:46;;;;;;;1.87;1.77;;;24.40;99.90;;;;;;5029221;28;20489;-50
2022/06/03 13:23:32;;;;;;;1.47;1.37;;;24.30;99.90;;;;;;5029970;28;20911;-51
2022/06/03 13:26:45;;;;;;;3.37;1.77;;;24.30;99.90;;;;;;5030144;28;20458;-51
2022/06/03 13:29:13;;;;;;;5.53;1.60;;;24.50;99.90;;;;;;5026412;28;20498;-49
2022/06/03 13:32:02;;;;;;;1.57;1.57;;;24.50;99.90;;;;;;5026372;28;21779;-52
2022/06/03 13:34:41;;;;;;;1.60;1.50;;;24.50;99.90;;;;;;5042841;28;20891;-53
2022/06/03 13:37:30;;;;;;;2.20;1.60;;;24.60;99.90;;;;;;5034028;28;20510;-50
2022/06/03 13:40:18;;;;;;;3.07;1.47;;;24.40;99.90;;;;;;5031427;28;20845;-51
2022/06/03 13:43:05;;;;;;;4.00;1.70;;;24.50;99.90;;;;;;5027581;28;20862;-50
2022/06/03 13:45:48;;;;;;;5.07;1.73;;;24.50;99.90;;;;;;5030486;28;20467;-50
2022/06/03 13:48:24;;;;;;;37.30;1.80;;;24.40;99.90;;;;;;5031717;28;21055;-51
2022/06/03 13:50:51;;;;;;;1.40;1.23;;;24.50;99.90;;;;;;5029805;28;20442;-52
2022/06/03 13:53:26;;;;;;;2.70;1.50;;;24.50;99.90;;;;;;5012206;28;20498;-53
2022/06/03 13:55:56;;;;;;;1.47;1.37;;;24.50;99.90;;;;;;5031181;28;20956;-51
2022/06/03 13:58:26;;;;;;;1.43;1.33;;;24.50;99.90;;;;;;5039457;28;20482;-52
2022/06/03 14:00:59;;;;;;;2.30;1.50;;;24.50;99.90;;;;;;5027294;28;20490;-52
2022/06/03 14:03:32;;;;;;;1.33;1.33;;;24.60;99.90;;;;;;5032182;28;20908;-52
2022/06/03 14:06:06;;;;;;;2.50;1.70;;;24.70;99.90;;;;;;5032017;28;20486;-51
2022/06/03 14:08:36;;;;;;;1.60;1.50;;;24.70;99.90;;;;;;5022077;28;20459;-52
2022/06/03 14:11:12;;;;;;;2.40;1.43;;;24.70;99.90;;;;;;5026637;28;20478;-51
2022/06/03 14:13:47;;;;;;;2.20;2.00;;;24.60;99.90;;;;;;5030904;28;20453;-52
2022/06/03 14:16:17;;;;;;;1.73;1.63;;;24.60;99.90;;;;;;5027950;28;20489;-52
2022/06/03 14:19:23;;;;;;;2.23;1.73;;;24.50;99.90;;;;;;5027009;28;20551;-52
2022/06/03 14:21:54;;;;;;;2.07;1.93;;;24.50;99.90;;;;;;5028422;28;20556;-53
2022/06/03 14:24:25;;;;;;;2.07;1.97;;;24.30;99.90;;;;;;5029333;28;20490;-52
2022/06/03 14:26:57;;;;;;;1.30;1.30;;;24.20;99.90;;;;;;5014620;28;20547;-52
2022/06/03 14:29:30;;;;;;;13.60;1.70;;;24.40;99.90;;;;;;5025994;28;20497;-51
2022/06/03 14:31:59;;;;;;;2.30;1.80;;;24.30;99.90;;;;;;5033653;28;20589;-52
2022/06/03 14:34:30;;;;;;;1.43;1.33;;;24.10;99.90;;;;;;5032042;28;20473;-51
2022/06/03 14:37:00;;;;;;;1.73;1.63;;;24.00;99.90;;;;;;5033379;28;20529;-54
2022/06/03 14:39:31;;;;;;;3.10;1.60;;;24.10;99.90;;;;;;5043420;28;20517;-51
2022/06/03 14:42:04;;;;;;;11.40;1.53;;;24.10;99.90;;;;;;5020375;28;20506;-52